Butes — A8UR6 — position and weather

sailwx.info

Track history (hours):
 
Tides and Currents Weather Stations Pressure Air Temp Water Temp Dewpoint Dewpoint Depression Visibility Wind Speed Wind Dir Waves Ship Positions

Butes

Last reported at 2017-Feb-22 21:25 UTC. Time now 2017-Feb-23 07:16 UTC.
Position N 35°57' W 005°43'.

Length 90 m; draft 5 m.

Type: Cargo ship. MMSI: 636091937.

Date/timePositionNaut miles runAvg speedWind from/ knotsBaromVisibWave heightAir tempDewpointWater temp
2017-Feb-22 21:25N 35°57' W 005°43'8 9.7
2017-Feb-22 20:33N 35°58' W 005°33'9 9.5
2017-Feb-22 19:34N 36°01' W 005°22'10 9.6
2017-Feb-22 18:33N 36°03' W 005°10'219 9.8
2017-Feb-21 20:13N 37°20' W 000°54'710.3
2017-Feb-21 19:33N 37°24' W 000°48'1210.7
2017-Feb-21 18:26N 37°32' W 000°37'9 9.9
2017-Feb-21 17:33N 37°39' W 000°30'14810.3
2017-Feb-21 03:16N 39°46' E 001°07'810.8
2017-Feb-21 02:34N 39°53' E 001°12'1110.5
2017-Feb-21 01:30N 40°03' E 001°19'1410.7
2017-Feb-21 00:11N 40°15' E 001°27'810.3
2017-Feb-20 23:26N 40°22' E 001°32'910.3
2017-Feb-20 22:33N 40°30' E 001°38'1010.2
2017-Feb-20 21:34N 40°39' E 001°45'10 9.5
2017-Feb-20 20:33N 40°47' E 001°51'10 9.6
2017-Feb-20 19:33N 40°56' E 001°56'10 9.8
2017-Feb-20 18:33N 41°04' E 002°02'10 9.9
2017-Feb-20 17:33N 41°13' E 002°08'  
2017-Feb-18 06:10N 41°20' E 002°09'0 0.0
2017-Feb-18 03:22N 41°20' E 002°09'31 1.6
2017-Feb-17 07:23N 40°54' E 001°47'910.7
2017-Feb-17 06:33N 40°48' E 001°39'1110.6
2017-Feb-17 05:32N 40°39' E 001°30'1110.8
2017-Feb-17 04:33N 40°32' E 001°19'1110.9
2017-Feb-17 03:33N 40°26' E 001°08'1111.1
2017-Feb-17 02:33N 40°19' E 000°57'  
Track history (hours):
 
Tides and Currents Weather Stations Pressure Air Temp Water Temp Dewpoint Dewpoint Depression Visibility Wind Speed Wind Dir Waves Ship Positions

Butes

Last reported at 2017-Feb-22 21:25 UTC. Time now 2017-Feb-23 07:16 UTC.
Position N 35°57' W 005°43'.

Length 90 m; draft 5 m.

Type: Cargo ship. MMSI: 636091937.

Date/timePositionNaut miles runAvg speedWind from/ knotsBaromVisibWave heightAir tempDewpointWater temp
2017-Feb-22 21:25N 35°57' W 005°43'8 9.7
2017-Feb-22 20:33N 35°58' W 005°33'9 9.5
2017-Feb-22 19:34N 36°01' W 005°22'10 9.6
2017-Feb-22 18:33N 36°03' W 005°10'219 9.8
2017-Feb-21 20:13N 37°20' W 000°54'710.3
2017-Feb-21 19:33N 37°24' W 000°48'1210.7
2017-Feb-21 18:26N 37°32' W 000°37'9 9.9
2017-Feb-21 17:33N 37°39' W 000°30'14810.3
2017-Feb-21 03:16N 39°46' E 001°07'810.8
2017-Feb-21 02:34N 39°53' E 001°12'1110.5
2017-Feb-21 01:30N 40°03' E 001°19'1410.7
2017-Feb-21 00:11N 40°15' E 001°27'810.3
2017-Feb-20 23:26N 40°22' E 001°32'910.3
2017-Feb-20 22:33N 40°30' E 001°38'1010.2
2017-Feb-20 21:34N 40°39' E 001°45'10 9.5
2017-Feb-20 20:33N 40°47' E 001°51'10 9.6
2017-Feb-20 19:33N 40°56' E 001°56'10 9.8
2017-Feb-20 18:33N 41°04' E 002°02'10 9.9
2017-Feb-20 17:33N 41°13' E 002°08'  
2017-Feb-18 06:10N 41°20' E 002°09'0 0.0
2017-Feb-18 03:22N 41°20' E 002°09'31 1.6
2017-Feb-17 07:23N 40°54' E 001°47'910.7
2017-Feb-17 06:33N 40°48' E 001°39'1110.6
2017-Feb-17 05:32N 40°39' E 001°30'1110.8
2017-Feb-17 04:33N 40°32' E 001°19'1110.9
2017-Feb-17 03:33N 40°26' E 001°08'1111.1
2017-Feb-17 02:33N 40°19' E 000°57'  

Dump ship's entire track history